sensor_id;sensor_type;location;lat;lon;timestamp;P1;durP1;ratioP1;P2;durP2;ratioP2
22026;SDS011;11177;50.966;10.070;2022-12-29T00:02:23;3.65;;;2.22;;
22026;SDS011;11177;50.966;10.070;2022-12-29T00:04:50;5.45;;;2.22;;
22026;SDS011;11177;50.966;10.070;2022-12-29T00:07:17;4.88;;;2.60;;
22026;SDS011;11177;50.966;10.070;2022-12-29T00:09:44;4.05;;;2.08;;
22026;SDS011;11177;50.966;10.070;2022-12-29T00:12:11;5.43;;;2.00;;
22026;SDS011;11177;50.966;10.070;2022-12-29T00:14:38;4.28;;;2.00;;
22026;SDS011;11177;50.966;10.070;2022-12-29T00:17:24;2.45;;;1.85;;
22026;SDS011;11177;50.966;10.070;2022-12-29T00:19:51;4.18;;;1.90;;
22026;SDS011;11177;50.966;10.070;2022-12-29T00:22:36;2.47;;;1.77;;
22026;SDS011;11177;50.966;10.070;2022-12-29T00:25:21;3.95;;;2.10;;
22026;SDS011;11177;50.966;10.070;2022-12-29T00:28:09;4.80;;;1.73;;
22026;SDS011;11177;50.966;10.070;2022-12-29T00:30:58;1.73;;;1.58;;
22026;SDS011;11177;50.966;10.070;2022-12-29T00:33:53;2.85;;;1.73;;
22026;SDS011;11177;50.966;10.070;2022-12-29T00:36:39;5.03;;;1.85;;
22026;SDS011;11177;50.966;10.070;2022-12-29T00:39:08;2.60;;;1.73;;
22026;SDS011;11177;50.966;10.070;2022-12-29T00:41:56;2.42;;;1.50;;
22026;SDS011;11177;50.966;10.070;2022-12-29T00:44:42;2.38;;;1.80;;
22026;SDS011;11177;50.966;10.070;2022-12-29T00:47:09;2.70;;;1.95;;
22026;SDS011;11177;50.966;10.070;2022-12-29T00:49:36;3.22;;;1.70;;
22026;SDS011;11177;50.966;10.070;2022-12-29T00:52:04;2.03;;;1.73;;
22026;SDS011;11177;50.966;10.070;2022-12-29T00:54:35;3.78;;;1.50;;
22026;SDS011;11177;50.966;10.070;2022-12-29T00:57:04;3.03;;;1.83;;
22026;SDS011;11177;50.966;10.070;2022-12-29T00:59:34;3.17;;;1.90;;
22026;SDS011;11177;50.966;10.070;2022-12-29T01:02:08;2.45;;;1.60;;
22026;SDS011;11177;50.966;10.070;2022-12-29T01:04:36;2.28;;;1.80;;
22026;SDS011;11177;50.966;10.070;2022-12-29T01:07:03;3.80;;;1.77;;
22026;SDS011;11177;50.966;10.070;2022-12-29T01:09:30;3.58;;;1.80;;
22026;SDS011;11177;50.966;10.070;2022-12-29T01:12:17;6.13;;;2.42;;
22026;SDS011;11177;50.966;10.070;2022-12-29T01:15:04;5.25;;;2.10;;
22026;SDS011;11177;50.966;10.070;2022-12-29T01:17:32;7.20;;;2.15;;
22026;SDS011;11177;50.966;10.070;2022-12-29T01:20:00;5.95;;;2.22;;
22026;SDS011;11177;50.966;10.070;2022-12-29T01:22:27;5.38;;;2.30;;
22026;SDS011;11177;50.966;10.070;2022-12-29T01:24:54;4.90;;;2.10;;
22026;SDS011;11177;50.966;10.070;2022-12-29T01:27:21;4.38;;;2.17;;
22026;SDS011;11177;50.966;10.070;2022-12-29T01:29:48;2.45;;;1.90;;
22026;SDS011;11177;50.966;10.070;2022-12-29T01:32:14;3.70;;;2.00;;
22026;SDS011;11177;50.966;10.070;2022-12-29T01:34:43;3.15;;;2.10;;
22026;SDS011;11177;50.966;10.070;2022-12-29T01:37:11;4.50;;;2.60;;
22026;SDS011;11177;50.966;10.070;2022-12-29T01:39:39;4.65;;;2.17;;
22026;SDS011;11177;50.966;10.070;2022-12-29T01:42:12;4.00;;;2.13;;
22026;SDS011;11177;50.966;10.070;2022-12-29T01:50:36;3.22;;;2.08;;
22026;SDS011;11177;50.966;10.070;2022-12-29T01:53:26;4.75;;;2.15;;
22026;SDS011;11177;50.966;10.070;2022-12-29T01:55:55;3.60;;;2.05;;
22026;SDS011;11177;50.966;10.070;2022-12-29T01:58:28;3.25;;;1.98;;
22026;SDS011;11177;50.966;10.070;2022-12-29T02:00:56;4.93;;;2.10;;
22026;SDS011;11177;50.966;10.070;2022-12-29T02:03:23;4.47;;;2.10;;
22026;SDS011;11177;50.966;10.070;2022-12-29T02:06:01;7.32;;;2.13;;
22026;SDS011;11177;50.966;10.070;2022-12-29T02:08:30;3.15;;;2.05;;
22026;SDS011;11177;50.966;10.070;2022-12-29T02:10:57;4.50;;;2.10;;
22026;SDS011;11177;50.966;10.070;2022-12-29T02:13:24;5.38;;;2.17;;
22026;SDS011;11177;50.966;10.070;2022-12-29T02:15:57;4.00;;;2.15;;
22026;SDS011;11177;50.966;10.070;2022-12-29T02:27:55;5.40;;;1.98;;
22026;SDS011;11177;50.966;10.070;2022-12-29T02:30:38;2.95;;;1.90;;
22026;SDS011;11177;50.966;10.070;2022-12-29T02:33:23;3.50;;;2.00;;
22026;SDS011;11177;50.966;10.070;2022-12-29T02:42:26;4.07;;;1.80;;
22026;SDS011;11177;50.966;10.070;2022-12-29T02:44:56;5.30;;;2.20;;
22026;SDS011;11177;50.966;10.070;2022-12-29T02:47:33;1.60;;;1.40;;
22026;SDS011;11177;50.966;10.070;2022-12-29T02:50:13;4.53;;;1.50;;
22026;SDS011;11177;50.966;10.070;2022-12-29T02:52:50;2.95;;;1.60;;
22026;SDS011;11177;50.966;10.070;2022-12-29T02:55:21;2.47;;;1.63;;
22026;SDS011;11177;50.966;10.070;2022-12-29T02:57:48;2.33;;;1.50;;
22026;SDS011;11177;50.966;10.070;2022-12-29T03:00:16;2.05;;;1.50;;
22026;SDS011;11177;50.966;10.070;2022-12-29T03:08:38;3.03;;;1.40;;
22026;SDS011;11177;50.966;10.070;2022-12-29T03:11:48;1.90;;;1.25;;
22026;SDS011;11177;50.966;10.070;2022-12-29T03:14:41;4.13;;;1.70;;
22026;SDS011;11177;50.966;10.070;2022-12-29T03:20:38;1.98;;;1.30;;
22026;SDS011;11177;50.966;10.070;2022-12-29T03:23:08;2.25;;;1.63;;
22026;SDS011;11177;50.966;10.070;2022-12-29T03:25:36;2.45;;;1.40;;
22026;SDS011;11177;50.966;10.070;2022-12-29T03:28:08;1.92;;;1.50;;
22026;SDS011;11177;50.966;10.070;2022-12-29T03:30:39;2.30;;;1.50;;
22026;SDS011;11177;50.966;10.070;2022-12-29T03:33:08;5.03;;;1.63;;
22026;SDS011;11177;50.966;10.070;2022-12-29T03:35:37;2.92;;;1.50;;
22026;SDS011;11177;50.966;10.070;2022-12-29T03:38:15;2.85;;;1.55;;
22026;SDS011;11177;50.966;10.070;2022-12-29T03:40:51;2.70;;;1.40;;
22026;SDS011;11177;50.966;10.070;2022-12-29T03:43:19;2.65;;;1.52;;
22026;SDS011;11177;50.966;10.070;2022-12-29T03:45:46;2.65;;;1.40;;
22026;SDS011;11177;50.966;10.070;2022-12-29T03:48:13;2.63;;;1.45;;
22026;SDS011;11177;50.966;10.070;2022-12-29T03:50:40;1.88;;;1.40;;
22026;SDS011;11177;50.966;10.070;2022-12-29T03:53:07;2.85;;;1.40;;
22026;SDS011;11177;50.966;10.070;2022-12-29T03:55:33;4.65;;;1.42;;
22026;SDS011;11177;50.966;10.070;2022-12-29T03:58:00;3.97;;;1.50;;
22026;SDS011;11177;50.966;10.070;2022-12-29T04:00:27;2.80;;;1.30;;
22026;SDS011;11177;50.966;10.070;2022-12-29T04:02:54;2.97;;;1.60;;
22026;SDS011;11177;50.966;10.070;2022-12-29T04:05:21;2.35;;;1.35;;
22026;SDS011;11177;50.966;10.070;2022-12-29T04:07:48;1.55;;;1.30;;
22026;SDS011;11177;50.966;10.070;2022-12-29T04:10:15;3.60;;;1.33;;
22026;SDS011;11177;50.966;10.070;2022-12-29T04:12:42;1.42;;;1.10;;
22026;SDS011;11177;50.966;10.070;2022-12-29T04:15:09;1.50;;;1.20;;
22026;SDS011;11177;50.966;10.070;2022-12-29T04:17:36;1.63;;;1.05;;
22026;SDS011;11177;50.966;10.070;2022-12-29T04:20:03;1.80;;;1.17;;
22026;SDS011;11177;50.966;10.070;2022-12-29T04:22:49;3.17;;;1.20;;
22026;SDS011;11177;50.966;10.070;2022-12-29T04:25:16;2.80;;;1.02;;
22026;SDS011;11177;50.966;10.070;2022-12-29T04:27:43;1.40;;;1.30;;
22026;SDS011;11177;50.966;10.070;2022-12-29T04:30:10;2.25;;;1.20;;
22026;SDS011;11177;50.966;10.070;2022-12-29T04:32:39;2.58;;;1.40;;
22026;SDS011;11177;50.966;10.070;2022-12-29T04:35:06;2.10;;;1.25;;
22026;SDS011;11177;50.966;10.070;2022-12-29T04:37:33;1.60;;;1.17;;
22026;SDS011;11177;50.966;10.070;2022-12-29T04:40:00;2.53;;;0.98;;
22026;SDS011;11177;50.966;10.070;2022-12-29T04:42:27;3.95;;;1.40;;
22026;SDS011;11177;50.966;10.070;2022-12-29T04:44:53;2.45;;;1.25;;
22026;SDS011;11177;50.966;10.070;2022-12-29T04:47:20;1.92;;;1.25;;
22026;SDS011;11177;50.966;10.070;2022-12-29T04:49:47;3.10;;;1.08;;
22026;SDS011;11177;50.966;10.070;2022-12-29T04:52:13;1.52;;;1.00;;
22026;SDS011;11177;50.966;10.070;2022-12-29T04:54:40;2.70;;;1.10;;
22026;SDS011;11177;50.966;10.070;2022-12-29T04:57:07;0.98;;;0.90;;
22026;SDS011;11177;50.966;10.070;2022-12-29T04:59:34;1.70;;;1.00;;
22026;SDS011;11177;50.966;10.070;2022-12-29T05:02:01;1.30;;;1.02;;
22026;SDS011;11177;50.966;10.070;2022-12-29T05:04:28;2.03;;;1.00;;
22026;SDS011;11177;50.966;10.070;2022-12-29T05:06:55;3.13;;;1.00;;
22026;SDS011;11177;50.966;10.070;2022-12-29T05:09:23;1.52;;;0.90;;
22026;SDS011;11177;50.966;10.070;2022-12-29T05:11:50;2.08;;;0.90;;
22026;SDS011;11177;50.966;10.070;2022-12-29T05:14:17;1.30;;;1.00;;
22026;SDS011;11177;50.966;10.070;2022-12-29T05:16:44;0.98;;;0.75;;
22026;SDS011;11177;50.966;10.070;2022-12-29T05:19:10;3.35;;;1.13;;
22026;SDS011;11177;50.966;10.070;2022-12-29T05:21:38;1.05;;;0.80;;
22026;SDS011;11177;50.966;10.070;2022-12-29T05:24:04;1.73;;;1.00;;
22026;SDS011;11177;50.966;10.070;2022-12-29T05:26:31;1.58;;;0.93;;
22026;SDS011;11177;50.966;10.070;2022-12-29T05:28:58;3.50;;;1.10;;
22026;SDS011;11177;50.966;10.070;2022-12-29T05:31:26;3.25;;;1.00;;
22026;SDS011;11177;50.966;10.070;2022-12-29T05:33:53;2.75;;;0.82;;
22026;SDS011;11177;50.966;10.070;2022-12-29T05:36:20;2.13;;;1.10;;
22026;SDS011;11177;50.966;10.070;2022-12-29T05:38:47;2.55;;;1.00;;
22026;SDS011;11177;50.966;10.070;2022-12-29T05:41:14;2.15;;;0.93;;
22026;SDS011;11177;50.966;10.070;2022-12-29T05:43:40;2.22;;;0.90;;
22026;SDS011;11177;50.966;10.070;2022-12-29T05:46:07;1.60;;;0.95;;
22026;SDS011;11177;50.966;10.070;2022-12-29T05:48:34;1.20;;;0.90;;
22026;SDS011;11177;50.966;10.070;2022-12-29T05:51:03;1.52;;;1.15;;
22026;SDS011;11177;50.966;10.070;2022-12-29T05:53:30;1.80;;;0.90;;
22026;SDS011;11177;50.966;10.070;2022-12-29T05:55:58;2.05;;;1.20;;
22026;SDS011;11177;50.966;10.070;2022-12-29T05:58:25;2.75;;;1.08;;
22026;SDS011;11177;50.966;10.070;2022-12-29T06:00:52;1.10;;;1.00;;
22026;SDS011;11177;50.966;10.070;2022-12-29T06:03:19;1.58;;;0.90;;
22026;SDS011;11177;50.966;10.070;2022-12-29T06:05:46;5.30;;;1.17;;
22026;SDS011;11177;50.966;10.070;2022-12-29T06:08:13;3.03;;;1.02;;
22026;SDS011;11177;50.966;10.070;2022-12-29T06:10:40;1.45;;;1.00;;
22026;SDS011;11177;50.966;10.070;2022-12-29T06:13:06;4.55;;;1.00;;
22026;SDS011;11177;50.966;10.070;2022-12-29T06:15:33;4.70;;;1.10;;
22026;SDS011;11177;50.966;10.070;2022-12-29T06:18:00;2.10;;;0.98;;
22026;SDS011;11177;50.966;10.070;2022-12-29T06:20:28;2.40;;;1.10;;
22026;SDS011;11177;50.966;10.070;2022-12-29T06:22:55;1.88;;;1.05;;
22026;SDS011;11177;50.966;10.070;2022-12-29T06:25:24;1.70;;;1.10;;
22026;SDS011;11177;50.966;10.070;2022-12-29T06:27:50;3.70;;;1.38;;
22026;SDS011;11177;50.966;10.070;2022-12-29T06:30:17;2.03;;;1.20;;
22026;SDS011;11177;50.966;10.070;2022-12-29T06:32:44;3.03;;;1.10;;
22026;SDS011;11177;50.966;10.070;2022-12-29T06:35:12;1.25;;;0.98;;
22026;SDS011;11177;50.966;10.070;2022-12-29T06:37:39;1.92;;;1.30;;
22026;SDS011;11177;50.966;10.070;2022-12-29T06:40:06;3.00;;;1.50;;
22026;SDS011;11177;50.966;10.070;2022-12-29T06:42:33;3.20;;;1.30;;
22026;SDS011;11177;50.966;10.070;2022-12-29T06:45:03;2.78;;;1.00;;
22026;SDS011;11177;50.966;10.070;2022-12-29T06:47:30;4.00;;;1.33;;
22026;SDS011;11177;50.966;10.070;2022-12-29T06:49:57;2.30;;;1.27;;
22026;SDS011;11177;50.966;10.070;2022-12-29T06:52:24;2.80;;;1.30;;
22026;SDS011;11177;50.966;10.070;2022-12-29T06:54:51;5.20;;;1.40;;
22026;SDS011;11177;50.966;10.070;2022-12-29T06:57:18;5.03;;;1.50;;
22026;SDS011;11177;50.966;10.070;2022-12-29T06:59:44;2.40;;;1.30;;
22026;SDS011;11177;50.966;10.070;2022-12-29T07:02:11;1.90;;;1.05;;
22026;SDS011;11177;50.966;10.070;2022-12-29T07:04:40;3.42;;;1.20;;
22026;SDS011;11177;50.966;10.070;2022-12-29T07:07:07;1.55;;;1.17;;
22026;SDS011;11177;50.966;10.070;2022-12-29T07:09:34;2.53;;;1.20;;
22026;SDS011;11177;50.966;10.070;2022-12-29T07:12:01;1.90;;;1.00;;
22026;SDS011;11177;50.966;10.070;2022-12-29T07:14:28;1.20;;;0.68;;
22026;SDS011;11177;50.966;10.070;2022-12-29T07:16:55;2.60;;;0.90;;
22026;SDS011;11177;50.966;10.070;2022-12-29T07:19:21;2.33;;;1.10;;
22026;SDS011;11177;50.966;10.070;2022-12-29T07:21:48;1.83;;;1.20;;
22026;SDS011;11177;50.966;10.070;2022-12-29T07:24:15;3.67;;;1.30;;
22026;SDS011;11177;50.966;10.070;2022-12-29T07:26:43;5.30;;;1.30;;
22026;SDS011;11177;50.966;10.070;2022-12-29T07:29:10;2.65;;;1.20;;
22026;SDS011;11177;50.966;10.070;2022-12-29T07:31:36;1.63;;;0.90;;
22026;SDS011;11177;50.966;10.070;2022-12-29T07:34:03;3.72;;;1.13;;
22026;SDS011;11177;50.966;10.070;2022-12-29T07:36:30;3.85;;;1.30;;
22026;SDS011;11177;50.966;10.070;2022-12-29T07:39:00;3.42;;;1.75;;
22026;SDS011;11177;50.966;10.070;2022-12-29T07:41:27;2.90;;;1.10;;
22026;SDS011;11177;50.966;10.070;2022-12-29T07:43:54;4.43;;;1.10;;
22026;SDS011;11177;50.966;10.070;2022-12-29T07:46:20;1.25;;;1.08;;
22026;SDS011;11177;50.966;10.070;2022-12-29T07:49:07;1.30;;;1.20;;
22026;SDS011;11177;50.966;10.070;2022-12-29T07:51:34;3.22;;;1.08;;
22026;SDS011;11177;50.966;10.070;2022-12-29T07:54:01;4.18;;;1.17;;
22026;SDS011;11177;50.966;10.070;2022-12-29T07:56:27;3.47;;;0.90;;
22026;SDS011;11177;50.966;10.070;2022-12-29T07:58:54;1.10;;;1.00;;
22026;SDS011;11177;50.966;10.070;2022-12-29T08:01:21;3.55;;;1.08;;
22026;SDS011;11177;50.966;10.070;2022-12-29T08:03:50;1.50;;;0.90;;
22026;SDS011;11177;50.966;10.070;2022-12-29T08:06:22;4.25;;;1.10;;
22026;SDS011;11177;50.966;10.070;2022-12-29T08:08:50;1.60;;;1.10;;
22026;SDS011;11177;50.966;10.070;2022-12-29T08:11:17;2.03;;;1.10;;
22026;SDS011;11177;50.966;10.070;2022-12-29T08:13:44;5.07;;;1.20;;
22026;SDS011;11177;50.966;10.070;2022-12-29T08:16:11;1.75;;;0.85;;
22026;SDS011;11177;50.966;10.070;2022-12-29T08:18:38;2.97;;;0.98;;
22026;SDS011;11177;50.966;10.070;2022-12-29T08:21:04;1.23;;;1.05;;
22026;SDS011;11177;50.966;10.070;2022-12-29T08:23:32;2.67;;;1.17;;
22026;SDS011;11177;50.966;10.070;2022-12-29T08:26:00;1.67;;;0.93;;
22026;SDS011;11177;50.966;10.070;2022-12-29T08:28:29;2.03;;;1.20;;
22026;SDS011;11177;50.966;10.070;2022-12-29T08:30:57;3.42;;;1.00;;
22026;SDS011;11177;50.966;10.070;2022-12-29T08:33:24;2.90;;;1.05;;
22026;SDS011;11177;50.966;10.070;2022-12-29T08:35:51;2.38;;;1.10;;
22026;SDS011;11177;50.966;10.070;2022-12-29T08:38:18;2.90;;;1.10;;
22026;SDS011;11177;50.966;10.070;2022-12-29T08:40:45;1.45;;;1.27;;
22026;SDS011;11177;50.966;10.070;2022-12-29T08:43:11;3.47;;;1.35;;
22026;SDS011;11177;50.966;10.070;2022-12-29T08:45:43;1.55;;;1.30;;
22026;SDS011;11177;50.966;10.070;2022-12-29T08:48:10;2.90;;;1.23;;
22026;SDS011;11177;50.966;10.070;2022-12-29T08:50:37;1.65;;;1.05;;
22026;SDS011;11177;50.966;10.070;2022-12-29T08:53:04;3.47;;;1.58;;
22026;SDS011;11177;50.966;10.070;2022-12-29T08:55:31;4.03;;;1.30;;
22026;SDS011;11177;50.966;10.070;2022-12-29T08:57:58;4.80;;;1.88;;
22026;SDS011;11177;50.966;10.070;2022-12-29T09:00:25;3.88;;;1.40;;
22026;SDS011;11177;50.966;10.070;2022-12-29T09:02:52;3.80;;;1.58;;
22026;SDS011;11177;50.966;10.070;2022-12-29T09:05:19;3.10;;;1.20;;
22026;SDS011;11177;50.966;10.070;2022-12-29T09:07:46;2.35;;;1.65;;
22026;SDS011;11177;50.966;10.070;2022-12-29T09:10:13;5.68;;;1.60;;
22026;SDS011;11177;50.966;10.070;2022-12-29T09:12:40;3.28;;;1.50;;
22026;SDS011;11177;50.966;10.070;2022-12-29T09:15:07;2.15;;;1.17;;
22026;SDS011;11177;50.966;10.070;2022-12-29T09:17:35;1.83;;;1.38;;
22026;SDS011;11177;50.966;10.070;2022-12-29T09:20:10;3.83;;;1.60;;
22026;SDS011;11177;50.966;10.070;2022-12-29T09:22:38;1.92;;;1.20;;
22026;SDS011;11177;50.966;10.070;2022-12-29T09:25:05;5.10;;;1.70;;
22026;SDS011;11177;50.966;10.070;2022-12-29T09:27:32;1.83;;;1.20;;
22026;SDS011;11177;50.966;10.070;2022-12-29T09:29:59;2.28;;;1.38;;
22026;SDS011;11177;50.966;10.070;2022-12-29T09:32:26;1.77;;;1.20;;
22026;SDS011;11177;50.966;10.070;2022-12-29T09:34:59;3.97;;;1.60;;
22026;SDS011;11177;50.966;10.070;2022-12-29T09:37:26;2.92;;;1.42;;
22026;SDS011;11177;50.966;10.070;2022-12-29T09:39:52;1.40;;;1.17;;
22026;SDS011;11177;50.966;10.070;2022-12-29T09:42:34;3.92;;;1.48;;
22026;SDS011;11177;50.966;10.070;2022-12-29T09:45:11;3.22;;;1.40;;
22026;SDS011;11177;50.966;10.070;2022-12-29T09:47:42;1.63;;;1.30;;
22026;SDS011;11177;50.966;10.070;2022-12-29T09:52:59;5.72;;;2.25;;
22026;SDS011;11177;50.966;10.070;2022-12-29T09:55:35;4.40;;;1.55;;
22026;SDS011;11177;50.966;10.070;2022-12-29T09:58:06;3.83;;;1.50;;
22026;SDS011;11177;50.966;10.070;2022-12-29T10:03:26;3.70;;;1.50;;
22026;SDS011;11177;50.966;10.070;2022-12-29T10:06:04;5.80;;;1.40;;
22026;SDS011;11177;50.966;10.070;2022-12-29T10:08:58;2.50;;;1.50;;
22026;SDS011;11177;50.966;10.070;2022-12-29T10:17:01;3.72;;;1.40;;
22026;SDS011;11177;50.966;10.070;2022-12-29T10:19:52;2.40;;;1.23;;
22026;SDS011;11177;50.966;10.070;2022-12-29T10:23:00;1.30;;;1.10;;
22026;SDS011;11177;50.966;10.070;2022-12-29T10:25:26;3.30;;;1.67;;
22026;SDS011;11177;50.966;10.070;2022-12-29T10:27:59;1.92;;;1.30;;
22026;SDS011;11177;50.966;10.070;2022-12-29T10:30:28;2.90;;;1.42;;
22026;SDS011;11177;50.966;10.070;2022-12-29T10:32:56;2.67;;;1.67;;
22026;SDS011;11177;50.966;10.070;2022-12-29T10:35:28;3.05;;;1.48;;
22026;SDS011;11177;50.966;10.070;2022-12-29T10:38:35;2.30;;;1.50;;
22026;SDS011;11177;50.966;10.070;2022-12-29T10:41:28;3.28;;;1.40;;
22026;SDS011;11177;50.966;10.070;2022-12-29T10:43:56;6.75;;;3.30;;
22026;SDS011;11177;50.966;10.070;2022-12-29T10:46:25;2.75;;;1.65;;
22026;SDS011;11177;50.966;10.070;2022-12-29T10:48:56;2.22;;;1.20;;
22026;SDS011;11177;50.966;10.070;2022-12-29T10:51:25;2.97;;;1.67;;
22026;SDS011;11177;50.966;10.070;2022-12-29T10:53:58;4.03;;;1.45;;
22026;SDS011;11177;50.966;10.070;2022-12-29T10:56:46;6.32;;;1.67;;
22026;SDS011;11177;50.966;10.070;2022-12-29T10:59:26;2.75;;;1.50;;
22026;SDS011;11177;50.966;10.070;2022-12-29T11:02:02;3.13;;;1.65;;
22026;SDS011;11177;50.966;10.070;2022-12-29T11:04:41;1.70;;;1.60;;
22026;SDS011;11177;50.966;10.070;2022-12-29T11:07:49;3.95;;;1.52;;
22026;SDS011;11177;50.966;10.070;2022-12-29T11:10:20;2.60;;;1.63;;
22026;SDS011;11177;50.966;10.070;2022-12-29T11:13:26;2.85;;;1.70;;
22026;SDS011;11177;50.966;10.070;2022-12-29T11:16:01;6.95;;;3.10;;
22026;SDS011;11177;50.966;10.070;2022-12-29T11:18:39;5.85;;;3.30;;
22026;SDS011;11177;50.966;10.070;2022-12-29T11:21:07;3.10;;;2.28;;
22026;SDS011;11177;50.966;10.070;2022-12-29T11:24:02;2.15;;;1.38;;
22026;SDS011;11177;50.966;10.070;2022-12-29T11:26:31;2.67;;;1.50;;
22026;SDS011;11177;50.966;10.070;2022-12-29T11:31:56;2.30;;;1.10;;
22026;SDS011;11177;50.966;10.070;2022-12-29T11:34:32;1.65;;;1.27;;
22026;SDS011;11177;50.966;10.070;2022-12-29T11:37:02;4.18;;;1.40;;
22026;SDS011;11177;50.966;10.070;2022-12-29T11:39:34;2.35;;;1.52;;
22026;SDS011;11177;50.966;10.070;2022-12-29T11:42:43;1.40;;;1.30;;
22026;SDS011;11177;50.966;10.070;2022-12-29T11:45:16;1.83;;;1.50;;
22026;SDS011;11177;50.966;10.070;2022-12-29T11:47:47;3.17;;;2.42;;
22026;SDS011;11177;50.966;10.070;2022-12-29T11:50:19;3.40;;;1.70;;
22026;SDS011;11177;50.966;10.070;2022-12-29T11:52:48;4.30;;;1.52;;
22026;SDS011;11177;50.966;10.070;2022-12-29T11:55:18;3.42;;;1.30;;
22026;SDS011;11177;50.966;10.070;2022-12-29T11:57:49;3.25;;;1.35;;
22026;SDS011;11177;50.966;10.070;2022-12-29T12:00:20;2.00;;;1.35;;
22026;SDS011;11177;50.966;10.070;2022-12-29T12:02:58;2.33;;;1.38;;
22026;SDS011;11177;50.966;10.070;2022-12-29T12:08:13;1.52;;;1.40;;
22026;SDS011;11177;50.966;10.070;2022-12-29T12:20:36;2.17;;;1.70;;
22026;SDS011;11177;50.966;10.070;2022-12-29T12:22:18;5.43;;;2.10;;
22026;SDS011;11177;50.966;10.070;2022-12-29T12:24:49;3.67;;;1.53;;
22026;SDS011;11177;50.966;10.070;2022-12-29T12:27:23;1.90;;;1.70;;
22026;SDS011;11177;50.966;10.070;2022-12-29T12:30:01;2.38;;;1.65;;
22026;SDS011;11177;50.966;10.070;2022-12-29T12:32:47;2.08;;;1.50;;
22026;SDS011;11177;50.966;10.070;2022-12-29T12:35:32;5.78;;;2.90;;
22026;SDS011;11177;50.966;10.070;2022-12-29T12:44:09;4.70;;;1.75;;
22026;SDS011;11177;50.966;10.070;2022-12-29T12:46:42;2.67;;;1.02;;
22026;SDS011;11177;50.966;10.070;2022-12-29T12:49:39;2.95;;;1.30;;
22026;SDS011;11177;50.966;10.070;2022-12-29T12:55:18;3.60;;;1.13;;
22026;SDS011;11177;50.966;10.070;2022-12-29T12:58:00;2.75;;;0.90;;
22026;SDS011;11177;50.966;10.070;2022-12-29T13:00:33;2.78;;;1.83;;
22026;SDS011;11177;50.966;10.070;2022-12-29T13:03:10;2.83;;;1.40;;
22026;SDS011;11177;50.966;10.070;2022-12-29T13:05:47;0.88;;;0.63;;
22026;SDS011;11177;50.966;10.070;2022-12-29T13:08:41;0.77;;;0.70;;
22026;SDS011;11177;50.966;10.070;2022-12-29T13:17:28;1.13;;;0.40;;
22026;SDS011;11177;50.966;10.070;2022-12-29T13:22:56;0.70;;;0.50;;
22026;SDS011;11177;50.966;10.070;2022-12-29T13:25:39;0.77;;;0.40;;
22026;SDS011;11177;50.966;10.070;2022-12-29T13:28:20;1.73;;;0.60;;
22026;SDS011;11177;50.966;10.070;2022-12-29T13:30:56;1.13;;;0.55;;
22026;SDS011;11177;50.966;10.070;2022-12-29T13:33:33;3.22;;;0.60;;
22026;SDS011;11177;50.966;10.070;2022-12-29T13:39:24;1.98;;;0.70;;
22026;SDS011;11177;50.966;10.070;2022-12-29T13:41:54;1.73;;;0.65;;
22026;SDS011;11177;50.966;10.070;2022-12-29T13:44:22;2.22;;;0.50;;
22026;SDS011;11177;50.966;10.070;2022-12-29T13:46:50;5.05;;;0.98;;
22026;SDS011;11177;50.966;10.070;2022-12-29T13:49:19;3.20;;;0.60;;
22026;SDS011;11177;50.966;10.070;2022-12-29T13:51:52;1.48;;;0.85;;
22026;SDS011;11177;50.966;10.070;2022-12-29T13:57:31;1.60;;;0.80;;
22026;SDS011;11177;50.966;10.070;2022-12-29T14:00:22;3.13;;;0.80;;
22026;SDS011;11177;50.966;10.070;2022-12-29T14:05:39;1.60;;;0.70;;
22026;SDS011;11177;50.966;10.070;2022-12-29T14:08:11;2.08;;;0.60;;
22026;SDS011;11177;50.966;10.070;2022-12-29T14:10:49;3.13;;;0.77;;
22026;SDS011;11177;50.966;10.070;2022-12-29T14:13:18;1.27;;;0.90;;
22026;SDS011;11177;50.966;10.070;2022-12-29T14:15:51;4.53;;;0.95;;
22026;SDS011;11177;50.966;10.070;2022-12-29T14:18:21;2.42;;;0.80;;
22026;SDS011;11177;50.966;10.070;2022-12-29T14:26:16;7.32;;;0.80;;
22026;SDS011;11177;50.966;10.070;2022-12-29T14:28:45;5.35;;;1.42;;
22026;SDS011;11177;50.966;10.070;2022-12-29T14:31:35;2.35;;;0.82;;
22026;SDS011;11177;50.966;10.070;2022-12-29T14:42:14;3.17;;;0.70;;
22026;SDS011;11177;50.966;10.070;2022-12-29T14:44:48;2.92;;;0.57;;
22026;SDS011;11177;50.966;10.070;2022-12-29T14:50:04;2.25;;;0.63;;
22026;SDS011;11177;50.966;10.070;2022-12-29T14:53:44;2.55;;;0.75;;
22026;SDS011;11177;50.966;10.070;2022-12-29T14:55:57;3.95;;;0.90;;
22026;SDS011;11177;50.966;10.070;2022-12-29T14:58:29;2.60;;;0.77;;
22026;SDS011;11177;50.966;10.070;2022-12-29T15:00:58;4.68;;;0.93;;
22026;SDS011;11177;50.966;10.070;2022-12-29T15:05:57;3.03;;;0.77;;
22026;SDS011;11177;50.966;10.070;2022-12-29T15:08:33;1.50;;;0.80;;
22026;SDS011;11177;50.966;10.070;2022-12-29T15:11:04;3.72;;;1.00;;
22026;SDS011;11177;50.966;10.070;2022-12-29T15:13:38;2.33;;;0.70;;
22026;SDS011;11177;50.966;10.070;2022-12-29T15:16:20;4.22;;;1.00;;
22026;SDS011;11177;50.966;10.070;2022-12-29T15:18:48;4.03;;;1.27;;
22026;SDS011;11177;50.966;10.070;2022-12-29T15:21:15;3.80;;;1.30;;
22026;SDS011;11177;50.966;10.070;2022-12-29T15:23:43;1.95;;;1.10;;
22026;SDS011;11177;50.966;10.070;2022-12-29T15:26:11;5.57;;;1.42;;
22026;SDS011;11177;50.966;10.070;2022-12-29T15:28:42;3.22;;;1.20;;
22026;SDS011;11177;50.966;10.070;2022-12-29T15:31:13;3.15;;;1.45;;
22026;SDS011;11177;50.966;10.070;2022-12-29T15:34:00;3.28;;;1.50;;
22026;SDS011;11177;50.966;10.070;2022-12-29T15:36:38;2.95;;;1.20;;
22026;SDS011;11177;50.966;10.070;2022-12-29T15:42:20;2.75;;;0.90;;
22026;SDS011;11177;50.966;10.070;2022-12-29T15:44:56;3.35;;;0.90;;
22026;SDS011;11177;50.966;10.070;2022-12-29T15:47:40;3.78;;;0.80;;
22026;SDS011;11177;50.966;10.070;2022-12-29T15:50:09;2.13;;;1.08;;
22026;SDS011;11177;50.966;10.070;2022-12-29T15:52:42;2.70;;;0.98;;
22026;SDS011;11177;50.966;10.070;2022-12-29T15:55:19;4.50;;;1.00;;
22026;SDS011;11177;50.966;10.070;2022-12-29T15:57:48;2.13;;;0.90;;
22026;SDS011;11177;50.966;10.070;2022-12-29T16:00:21;5.10;;;1.98;;
22026;SDS011;11177;50.966;10.070;2022-12-29T16:02:53;3.95;;;1.60;;
22026;SDS011;11177;50.966;10.070;2022-12-29T16:05:21;6.78;;;2.80;;
22026;SDS011;11177;50.966;10.070;2022-12-29T16:07:52;3.90;;;1.73;;
22026;SDS011;11177;50.966;10.070;2022-12-29T16:10:31;4.63;;;1.20;;
22026;SDS011;11177;50.966;10.070;2022-12-29T16:16:16;4.72;;;1.42;;
22026;SDS011;11177;50.966;10.070;2022-12-29T16:18:46;6.90;;;1.40;;
22026;SDS011;11177;50.966;10.070;2022-12-29T16:21:23;5.20;;;1.27;;
22026;SDS011;11177;50.966;10.070;2022-12-29T16:23:57;8.93;;;1.50;;
22026;SDS011;11177;50.966;10.070;2022-12-29T16:26:27;3.78;;;1.60;;
22026;SDS011;11177;50.966;10.070;2022-12-29T16:28:59;5.07;;;1.45;;
22026;SDS011;11177;50.966;10.070;2022-12-29T16:31:49;4.60;;;1.52;;
22026;SDS011;11177;50.966;10.070;2022-12-29T16:34:31;3.05;;;1.17;;
22026;SDS011;11177;50.966;10.070;2022-12-29T16:37:00;3.45;;;1.00;;
22026;SDS011;11177;50.966;10.070;2022-12-29T16:39:38;3.65;;;1.38;;
22026;SDS011;11177;50.966;10.070;2022-12-29T16:48:53;6.85;;;0.90;;
22026;SDS011;11177;50.966;10.070;2022-12-29T16:51:23;4.45;;;0.70;;
22026;SDS011;11177;50.966;10.070;2022-12-29T16:53:56;2.88;;;0.80;;
22026;SDS011;11177;50.966;10.070;2022-12-29T16:56:25;3.60;;;0.77;;
22026;SDS011;11177;50.966;10.070;2022-12-29T16:59:16;3.55;;;0.85;;